sensor_id;sensor_type;location;lat;lon;timestamp;P1;durP1;ratioP1;P2;durP2;ratioP2
31746;SDS011;18319;48.974;8.462;2023-04-06T00:00:23;3.23;;;2.93;;
31746;SDS011;18319;48.974;8.462;2023-04-06T00:02:50;2.80;;;2.60;;
31746;SDS011;18319;48.974;8.462;2023-04-06T00:05:17;2.70;;;2.50;;
31746;SDS011;18319;48.974;8.462;2023-04-06T00:07:44;2.63;;;2.53;;
31746;SDS011;18319;48.974;8.462;2023-04-06T00:10:11;3.10;;;2.90;;
31746;SDS011;18319;48.974;8.462;2023-04-06T00:12:38;3.57;;;3.27;;
31746;SDS011;18319;48.974;8.462;2023-04-06T00:15:05;3.03;;;2.60;;
31746;SDS011;18319;48.974;8.462;2023-04-06T00:17:34;3.50;;;3.20;;
31746;SDS011;18319;48.974;8.462;2023-04-06T00:20:01;3.57;;;3.30;;
31746;SDS011;18319;48.974;8.462;2023-04-06T00:22:29;3.47;;;2.90;;
31746;SDS011;18319;48.974;8.462;2023-04-06T00:24:56;6.53;;;3.17;;
31746;SDS011;18319;48.974;8.462;2023-04-06T00:27:23;2.97;;;2.77;;
31746;SDS011;18319;48.974;8.462;2023-04-06T00:29:50;4.27;;;3.87;;
31746;SDS011;18319;48.974;8.462;2023-04-06T00:32:16;3.53;;;3.23;;
31746;SDS011;18319;48.974;8.462;2023-04-06T00:34:45;3.10;;;2.90;;
31746;SDS011;18319;48.974;8.462;2023-04-06T00:37:12;2.63;;;2.50;;
31746;SDS011;18319;48.974;8.462;2023-04-06T00:39:38;2.93;;;2.73;;
31746;SDS011;18319;48.974;8.462;2023-04-06T00:42:07;3.20;;;2.90;;
31746;SDS011;18319;48.974;8.462;2023-04-06T00:44:37;3.50;;;3.00;;
31746;SDS011;18319;48.974;8.462;2023-04-06T00:47:04;3.97;;;3.03;;
31746;SDS011;18319;48.974;8.462;2023-04-06T00:49:31;3.33;;;2.40;;
31746;SDS011;18319;48.974;8.462;2023-04-06T00:52:00;3.20;;;2.93;;
31746;SDS011;18319;48.974;8.462;2023-04-06T00:54:28;3.70;;;3.40;;
31746;SDS011;18319;48.974;8.462;2023-04-06T00:56:55;4.13;;;2.80;;
31746;SDS011;18319;48.974;8.462;2023-04-06T00:59:22;4.70;;;3.13;;
31746;SDS011;18319;48.974;8.462;2023-04-06T01:01:50;3.20;;;2.90;;
31746;SDS011;18319;48.974;8.462;2023-04-06T01:04:17;3.40;;;3.20;;
31746;SDS011;18319;48.974;8.462;2023-04-06T01:06:44;3.67;;;3.33;;
31746;SDS011;18319;48.974;8.462;2023-04-06T01:09:12;3.90;;;3.60;;
31746;SDS011;18319;48.974;8.462;2023-04-06T01:11:39;2.90;;;2.60;;
31746;SDS011;18319;48.974;8.462;2023-04-06T01:14:06;4.17;;;3.80;;
31746;SDS011;18319;48.974;8.462;2023-04-06T01:16:33;5.50;;;3.50;;
31746;SDS011;18319;48.974;8.462;2023-04-06T01:19:00;3.33;;;3.03;;
31746;SDS011;18319;48.974;8.462;2023-04-06T01:21:28;3.63;;;3.30;;
31746;SDS011;18319;48.974;8.462;2023-04-06T01:23:56;3.50;;;3.07;;
31746;SDS011;18319;48.974;8.462;2023-04-06T01:26:23;3.97;;;3.20;;
31746;SDS011;18319;48.974;8.462;2023-04-06T01:28:50;4.43;;;4.03;;
31746;SDS011;18319;48.974;8.462;2023-04-06T01:31:17;3.63;;;3.33;;
31746;SDS011;18319;48.974;8.462;2023-04-06T01:33:44;3.50;;;3.20;;
31746;SDS011;18319;48.974;8.462;2023-04-06T01:36:11;4.23;;;3.33;;
31746;SDS011;18319;48.974;8.462;2023-04-06T01:38:37;2.83;;;2.60;;
31746;SDS011;18319;48.974;8.462;2023-04-06T01:41:06;3.40;;;3.10;;
31746;SDS011;18319;48.974;8.462;2023-04-06T01:43:33;2.77;;;2.57;;
31746;SDS011;18319;48.974;8.462;2023-04-06T01:46:00;2.93;;;2.73;;
31746;SDS011;18319;48.974;8.462;2023-04-06T01:48:27;3.27;;;2.70;;
31746;SDS011;18319;48.974;8.462;2023-04-06T01:50:54;4.17;;;3.43;;
31746;SDS011;18319;48.974;8.462;2023-04-06T01:53:21;3.47;;;3.17;;
31746;SDS011;18319;48.974;8.462;2023-04-06T01:55:48;3.03;;;2.83;;
31746;SDS011;18319;48.974;8.462;2023-04-06T01:58:16;3.20;;;2.57;;
31746;SDS011;18319;48.974;8.462;2023-04-06T02:00:43;3.87;;;3.10;;
31746;SDS011;18319;48.974;8.462;2023-04-06T02:03:10;3.50;;;3.20;;
31746;SDS011;18319;48.974;8.462;2023-04-06T02:05:37;3.20;;;2.90;;
31746;SDS011;18319;48.974;8.462;2023-04-06T02:08:04;3.60;;;2.60;;
31746;SDS011;18319;48.974;8.462;2023-04-06T02:10:31;3.00;;;2.80;;
31746;SDS011;18319;48.974;8.462;2023-04-06T02:12:58;3.73;;;3.47;;
31746;SDS011;18319;48.974;8.462;2023-04-06T02:15:26;4.53;;;2.83;;
31746;SDS011;18319;48.974;8.462;2023-04-06T02:17:53;3.27;;;3.00;;
31746;SDS011;18319;48.974;8.462;2023-04-06T02:20:20;5.27;;;3.03;;
31746;SDS011;18319;48.974;8.462;2023-04-06T02:22:47;3.20;;;2.97;;
31746;SDS011;18319;48.974;8.462;2023-04-06T02:25:13;3.73;;;2.60;;
31746;SDS011;18319;48.974;8.462;2023-04-06T02:27:41;3.20;;;2.90;;
31746;SDS011;18319;48.974;8.462;2023-04-06T02:30:08;3.10;;;2.90;;
31746;SDS011;18319;48.974;8.462;2023-04-06T02:32:37;3.47;;;2.63;;
31746;SDS011;18319;48.974;8.462;2023-04-06T02:35:04;3.40;;;2.87;;
31746;SDS011;18319;48.974;8.462;2023-04-06T02:37:31;3.43;;;3.20;;
31746;SDS011;18319;48.974;8.462;2023-04-06T02:39:58;2.77;;;2.57;;
31746;SDS011;18319;48.974;8.462;2023-04-06T02:42:25;6.50;;;2.77;;
31746;SDS011;18319;48.974;8.462;2023-04-06T02:44:52;2.43;;;2.23;;
31746;SDS011;18319;48.974;8.462;2023-04-06T02:47:18;2.73;;;2.53;;
31746;SDS011;18319;48.974;8.462;2023-04-06T02:49:47;3.33;;;3.03;;
31746;SDS011;18319;48.974;8.462;2023-04-06T02:52:14;3.33;;;2.77;;
31746;SDS011;18319;48.974;8.462;2023-04-06T02:54:42;2.60;;;2.40;;
31746;SDS011;18319;48.974;8.462;2023-04-06T02:57:09;4.63;;;2.23;;
31746;SDS011;18319;48.974;8.462;2023-04-06T02:59:36;3.50;;;2.90;;
31746;SDS011;18319;48.974;8.462;2023-04-06T03:02:03;2.90;;;2.60;;
31746;SDS011;18319;48.974;8.462;2023-04-06T03:04:30;2.67;;;2.47;;
31746;SDS011;18319;48.974;8.462;2023-04-06T03:06:58;2.67;;;2.50;;
31746;SDS011;18319;48.974;8.462;2023-04-06T03:09:25;2.67;;;2.47;;
31746;SDS011;18319;48.974;8.462;2023-04-06T03:11:52;2.70;;;2.50;;
31746;SDS011;18319;48.974;8.462;2023-04-06T03:14:20;2.70;;;2.57;;
31746;SDS011;18319;48.974;8.462;2023-04-06T03:16:47;2.80;;;2.57;;
31746;SDS011;18319;48.974;8.462;2023-04-06T03:19:14;4.47;;;2.17;;
31746;SDS011;18319;48.974;8.462;2023-04-06T03:21:41;2.40;;;2.23;;
31746;SDS011;18319;48.974;8.462;2023-04-06T03:24:09;2.53;;;2.40;;
31746;SDS011;18319;48.974;8.462;2023-04-06T03:26:37;2.80;;;2.60;;
31746;SDS011;18319;48.974;8.462;2023-04-06T03:29:05;2.63;;;2.17;;
31746;SDS011;18319;48.974;8.462;2023-04-06T03:31:32;3.27;;;2.60;;
31746;SDS011;18319;48.974;8.462;2023-04-06T03:33:59;5.10;;;2.63;;
31746;SDS011;18319;48.974;8.462;2023-04-06T03:36:26;2.33;;;2.23;;
31746;SDS011;18319;48.974;8.462;2023-04-06T03:38:53;2.50;;;2.30;;
31746;SDS011;18319;48.974;8.462;2023-04-06T03:41:21;5.53;;;2.73;;
31746;SDS011;18319;48.974;8.462;2023-04-06T03:43:48;2.77;;;2.53;;
31746;SDS011;18319;48.974;8.462;2023-04-06T03:46:15;2.50;;;2.20;;
31746;SDS011;18319;48.974;8.462;2023-04-06T03:48:41;2.53;;;2.33;;
31746;SDS011;18319;48.974;8.462;2023-04-06T03:51:08;3.23;;;2.60;;
31746;SDS011;18319;48.974;8.462;2023-04-06T03:53:35;2.87;;;2.50;;
31746;SDS011;18319;48.974;8.462;2023-04-06T03:56:03;2.30;;;2.10;;
31746;SDS011;18319;48.974;8.462;2023-04-06T03:58:31;3.20;;;2.70;;
31746;SDS011;18319;48.974;8.462;2023-04-06T04:00:58;3.63;;;2.63;;
31746;SDS011;18319;48.974;8.462;2023-04-06T04:03:25;3.23;;;2.97;;
31746;SDS011;18319;48.974;8.462;2023-04-06T04:05:53;2.77;;;2.63;;
31746;SDS011;18319;48.974;8.462;2023-04-06T04:08:20;2.87;;;2.67;;
31746;SDS011;18319;48.974;8.462;2023-04-06T04:10:47;2.60;;;2.50;;
31746;SDS011;18319;48.974;8.462;2023-04-06T04:13:13;2.83;;;2.63;;
31746;SDS011;18319;48.974;8.462;2023-04-06T04:15:42;3.23;;;3.03;;
31746;SDS011;18319;48.974;8.462;2023-04-06T04:18:09;3.00;;;2.80;;
31746;SDS011;18319;48.974;8.462;2023-04-06T04:20:36;3.27;;;3.00;;
31746;SDS011;18319;48.974;8.462;2023-04-06T04:23:02;3.40;;;2.90;;
31746;SDS011;18319;48.974;8.462;2023-04-06T04:25:29;3.57;;;2.70;;
31746;SDS011;18319;48.974;8.462;2023-04-06T04:27:56;3.50;;;3.13;;
31746;SDS011;18319;48.974;8.462;2023-04-06T04:30:25;4.23;;;2.87;;
31746;SDS011;18319;48.974;8.462;2023-04-06T04:32:53;3.00;;;2.80;;
31746;SDS011;18319;48.974;8.462;2023-04-06T04:35:20;3.30;;;3.10;;
31746;SDS011;18319;48.974;8.462;2023-04-06T04:37:47;2.80;;;2.57;;
31746;SDS011;18319;48.974;8.462;2023-04-06T04:40:14;2.73;;;2.53;;
31746;SDS011;18319;48.974;8.462;2023-04-06T04:42:41;3.23;;;2.97;;
31746;SDS011;18319;48.974;8.462;2023-04-06T04:45:08;2.90;;;2.70;;
31746;SDS011;18319;48.974;8.462;2023-04-06T04:47:36;4.70;;;3.33;;
31746;SDS011;18319;48.974;8.462;2023-04-06T04:50:05;4.13;;;3.33;;
31746;SDS011;18319;48.974;8.462;2023-04-06T04:52:32;4.03;;;3.73;;
31746;SDS011;18319;48.974;8.462;2023-04-06T04:54:59;3.50;;;3.13;;
31746;SDS011;18319;48.974;8.462;2023-04-06T04:57:27;3.73;;;3.43;;
31746;SDS011;18319;48.974;8.462;2023-04-06T04:59:54;4.67;;;3.00;;
31746;SDS011;18319;48.974;8.462;2023-04-06T05:02:22;6.60;;;5.50;;
31746;SDS011;18319;48.974;8.462;2023-04-06T05:04:49;5.63;;;5.13;;
31746;SDS011;18319;48.974;8.462;2023-04-06T05:07:17;5.83;;;4.23;;
31746;SDS011;18319;48.974;8.462;2023-04-06T05:09:45;8.33;;;3.80;;
31746;SDS011;18319;48.974;8.462;2023-04-06T05:12:12;3.20;;;3.00;;
31746;SDS011;18319;48.974;8.462;2023-04-06T05:14:39;3.63;;;3.40;;
31746;SDS011;18319;48.974;8.462;2023-04-06T05:17:06;3.33;;;3.10;;
31746;SDS011;18319;48.974;8.462;2023-04-06T05:19:33;4.07;;;3.60;;
31746;SDS011;18319;48.974;8.462;2023-04-06T05:22:00;4.67;;;3.10;;
31746;SDS011;18319;48.974;8.462;2023-04-06T05:24:28;3.43;;;3.13;;
31746;SDS011;18319;48.974;8.462;2023-04-06T05:26:55;2.83;;;2.63;;
31746;SDS011;18319;48.974;8.462;2023-04-06T05:29:22;3.30;;;3.10;;
31746;SDS011;18319;48.974;8.462;2023-04-06T05:31:50;3.87;;;3.30;;
31746;SDS011;18319;48.974;8.462;2023-04-06T05:34:17;4.20;;;3.43;;
31746;SDS011;18319;48.974;8.462;2023-04-06T05:36:44;2.87;;;2.67;;
31746;SDS011;18319;48.974;8.462;2023-04-06T05:39:11;3.07;;;2.87;;
31746;SDS011;18319;48.974;8.462;2023-04-06T05:41:40;3.97;;;3.10;;
31746;SDS011;18319;48.974;8.462;2023-04-06T05:44:07;3.07;;;2.83;;
31746;SDS011;18319;48.974;8.462;2023-04-06T05:46:34;3.70;;;3.40;;
31746;SDS011;18319;48.974;8.462;2023-04-06T05:49:00;4.77;;;3.43;;
31746;SDS011;18319;48.974;8.462;2023-04-06T05:51:27;3.30;;;3.10;;
31746;SDS011;18319;48.974;8.462;2023-04-06T05:53:54;4.50;;;3.40;;
31746;SDS011;18319;48.974;8.462;2023-04-06T05:56:22;3.53;;;3.23;;
31746;SDS011;18319;48.974;8.462;2023-04-06T05:58:51;3.27;;;2.80;;
31746;SDS011;18319;48.974;8.462;2023-04-06T06:01:18;4.80;;;3.57;;
31746;SDS011;18319;48.974;8.462;2023-04-06T06:03:45;3.73;;;3.10;;
31746;SDS011;18319;48.974;8.462;2023-04-06T06:06:12;4.17;;;3.80;;
31746;SDS011;18319;48.974;8.462;2023-04-06T06:08:39;4.10;;;3.77;;
31746;SDS011;18319;48.974;8.462;2023-04-06T06:11:06;4.40;;;3.80;;
31746;SDS011;18319;48.974;8.462;2023-04-06T06:13:33;3.47;;;3.17;;
31746;SDS011;18319;48.974;8.462;2023-04-06T06:16:01;2.97;;;2.77;;
31746;SDS011;18319;48.974;8.462;2023-04-06T06:18:30;4.10;;;3.23;;
31746;SDS011;18319;48.974;8.462;2023-04-06T06:20:57;3.43;;;2.83;;
31746;SDS011;18319;48.974;8.462;2023-04-06T06:23:24;4.23;;;2.90;;
31746;SDS011;18319;48.974;8.462;2023-04-06T06:25:51;2.70;;;2.50;;
31746;SDS011;18319;48.974;8.462;2023-04-06T06:28:18;3.60;;;3.23;;
31746;SDS011;18319;48.974;8.462;2023-04-06T06:30:45;3.10;;;2.80;;
31746;SDS011;18319;48.974;8.462;2023-04-06T06:33:13;4.70;;;3.37;;
31746;SDS011;18319;48.974;8.462;2023-04-06T06:35:40;7.93;;;3.13;;
31746;SDS011;18319;48.974;8.462;2023-04-06T06:38:07;3.53;;;3.23;;
31746;SDS011;18319;48.974;8.462;2023-04-06T06:40:34;8.13;;;3.03;;
31746;SDS011;18319;48.974;8.462;2023-04-06T06:43:01;8.07;;;3.97;;
31746;SDS011;18319;48.974;8.462;2023-04-06T06:45:28;4.70;;;3.53;;
31746;SDS011;18319;48.974;8.462;2023-04-06T06:47:55;5.93;;;3.40;;
31746;SDS011;18319;48.974;8.462;2023-04-06T06:50:24;8.03;;;3.40;;
31746;SDS011;18319;48.974;8.462;2023-04-06T06:52:51;5.07;;;3.60;;
31746;SDS011;18319;48.974;8.462;2023-04-06T06:55:17;3.73;;;3.27;;
31746;SDS011;18319;48.974;8.462;2023-04-06T06:57:45;4.30;;;3.90;;
31746;SDS011;18319;48.974;8.462;2023-04-06T07:00:14;4.77;;;4.10;;
31746;SDS011;18319;48.974;8.462;2023-04-06T07:02:41;4.67;;;4.27;;
31746;SDS011;18319;48.974;8.462;2023-04-06T07:05:08;4.53;;;3.93;;
31746;SDS011;18319;48.974;8.462;2023-04-06T07:07:37;5.20;;;4.30;;
31746;SDS011;18319;48.974;8.462;2023-04-06T07:10:04;4.40;;;3.90;;
31746;SDS011;18319;48.974;8.462;2023-04-06T07:12:31;4.53;;;3.90;;
31746;SDS011;18319;48.974;8.462;2023-04-06T07:14:58;3.93;;;3.63;;
31746;SDS011;18319;48.974;8.462;2023-04-06T07:17:25;4.23;;;3.93;;
31746;SDS011;18319;48.974;8.462;2023-04-06T07:19:52;4.13;;;3.77;;
31746;SDS011;18319;48.974;8.462;2023-04-06T07:22:19;4.13;;;3.73;;
31746;SDS011;18319;48.974;8.462;2023-04-06T07:24:47;6.17;;;4.57;;
31746;SDS011;18319;48.974;8.462;2023-04-06T07:27:14;5.57;;;4.47;;
31746;SDS011;18319;48.974;8.462;2023-04-06T07:29:41;3.93;;;3.63;;
31746;SDS011;18319;48.974;8.462;2023-04-06T07:32:08;4.17;;;3.40;;
31746;SDS011;18319;48.974;8.462;2023-04-06T07:34:35;3.83;;;3.53;;
31746;SDS011;18319;48.974;8.462;2023-04-06T07:37:02;4.23;;;3.50;;
31746;SDS011;18319;48.974;8.462;2023-04-06T07:39:29;3.87;;;3.50;;
31746;SDS011;18319;48.974;8.462;2023-04-06T07:41:57;5.10;;;3.70;;
31746;SDS011;18319;48.974;8.462;2023-04-06T07:44:24;6.67;;;3.60;;
31746;SDS011;18319;48.974;8.462;2023-04-06T07:46:51;10.43;;;3.77;;
31746;SDS011;18319;48.974;8.462;2023-04-06T07:49:18;5.77;;;4.23;;
31746;SDS011;18319;48.974;8.462;2023-04-06T07:51:45;4.37;;;3.97;;
31746;SDS011;18319;48.974;8.462;2023-04-06T07:54:12;5.73;;;3.60;;
31746;SDS011;18319;48.974;8.462;2023-04-06T07:56:39;4.33;;;3.63;;
31746;SDS011;18319;48.974;8.462;2023-04-06T07:59:08;5.33;;;4.27;;
31746;SDS011;18319;48.974;8.462;2023-04-06T08:01:36;4.30;;;3.90;;
31746;SDS011;18319;48.974;8.462;2023-04-06T08:04:03;4.53;;;4.13;;
31746;SDS011;18319;48.974;8.462;2023-04-06T08:06:30;4.47;;;4.10;;
31746;SDS011;18319;48.974;8.462;2023-04-06T08:08:57;8.10;;;3.97;;
31746;SDS011;18319;48.974;8.462;2023-04-06T08:11:24;4.82;;;4.35;;
31746;SDS011;18319;48.974;8.462;2023-04-06T08:13:51;8.47;;;5.17;;
31746;SDS011;18319;48.974;8.462;2023-04-06T08:16:20;6.30;;;4.25;;
31746;SDS011;18319;48.974;8.462;2023-04-06T08:18:46;5.05;;;4.60;;
31746;SDS011;18319;48.974;8.462;2023-04-06T08:21:13;7.72;;;5.03;;
31746;SDS011;18319;48.974;8.462;2023-04-06T08:23:40;5.50;;;5.00;;
31746;SDS011;18319;48.974;8.462;2023-04-06T08:26:07;4.63;;;4.32;;
31746;SDS011;18319;48.974;8.462;2023-04-06T08:28:34;6.88;;;4.32;;
31746;SDS011;18319;48.974;8.462;2023-04-06T08:31:03;4.43;;;4.03;;
31746;SDS011;18319;48.974;8.462;2023-04-06T08:33:32;4.20;;;3.90;;
31746;SDS011;18319;48.974;8.462;2023-04-06T08:36:06;3.90;;;3.60;;
31746;SDS011;18319;48.974;8.462;2023-04-06T08:38:37;4.18;;;3.88;;
31746;SDS011;18319;48.974;8.462;2023-04-06T08:41:08;4.05;;;3.63;;
31746;SDS011;18319;48.974;8.462;2023-04-06T08:43:36;4.18;;;3.88;;
31746;SDS011;18319;48.974;8.462;2023-04-06T08:46:08;4.68;;;4.20;;
31746;SDS011;18319;48.974;8.462;2023-04-06T08:48:37;7.70;;;4.07;;
31746;SDS011;18319;48.974;8.462;2023-04-06T08:51:06;4.72;;;4.32;;
31746;SDS011;18319;48.974;8.462;2023-04-06T08:53:33;5.25;;;4.75;;
31746;SDS011;18319;48.974;8.462;2023-04-06T08:56:00;5.22;;;4.28;;
31746;SDS011;18319;48.974;8.462;2023-04-06T08:58:28;5.45;;;4.53;;
31746;SDS011;18319;48.974;8.462;2023-04-06T09:00:58;4.22;;;3.83;;
31746;SDS011;18319;48.974;8.462;2023-04-06T09:03:27;6.57;;;4.50;;
31746;SDS011;18319;48.974;8.462;2023-04-06T09:05:57;4.75;;;4.35;;
31746;SDS011;18319;48.974;8.462;2023-04-06T09:08:25;4.50;;;4.10;;
31746;SDS011;18319;48.974;8.462;2023-04-06T09:10:52;4.70;;;4.30;;
31746;SDS011;18319;48.974;8.462;2023-04-06T09:13:19;4.78;;;4.47;;
31746;SDS011;18319;48.974;8.462;2023-04-06T09:15:46;5.30;;;4.00;;
31746;SDS011;18319;48.974;8.462;2023-04-06T09:18:13;4.07;;;3.78;;
31746;SDS011;18319;48.974;8.462;2023-04-06T09:20:57;4.63;;;4.32;;
31746;SDS011;18319;48.974;8.462;2023-04-06T09:23:25;5.15;;;3.85;;
31746;SDS011;18319;48.974;8.462;2023-04-06T09:26:02;4.70;;;4.25;;
31746;SDS011;18319;48.974;8.462;2023-04-06T09:28:43;5.40;;;4.90;;
31746;SDS011;18319;48.974;8.462;2023-04-06T09:31:11;4.70;;;4.35;;
31746;SDS011;18319;48.974;8.462;2023-04-06T09:33:38;4.20;;;4.00;;
31746;SDS011;18319;48.974;8.462;2023-04-06T09:36:08;7.35;;;5.32;;
31746;SDS011;18319;48.974;8.462;2023-04-06T09:38:38;5.45;;;4.70;;
31746;SDS011;18319;48.974;8.462;2023-04-06T09:41:20;4.82;;;4.43;;
31746;SDS011;18319;48.974;8.462;2023-04-06T09:43:48;4.80;;;4.40;;
31746;SDS011;18319;48.974;8.462;2023-04-06T09:46:15;4.63;;;4.32;;
31746;SDS011;18319;48.974;8.462;2023-04-06T09:48:43;5.65;;;4.90;;
31746;SDS011;18319;48.974;8.462;2023-04-06T09:51:12;6.90;;;5.13;;
31746;SDS011;18319;48.974;8.462;2023-04-06T09:53:41;5.32;;;4.93;;
31746;SDS011;18319;48.974;8.462;2023-04-06T09:56:11;5.43;;;4.82;;
31746;SDS011;18319;48.974;8.462;2023-04-06T09:58:42;4.35;;;3.95;;
31746;SDS011;18319;48.974;8.462;2023-04-06T10:01:13;5.50;;;4.85;;
31746;SDS011;18319;48.974;8.462;2023-04-06T10:03:44;5.53;;;5.03;;
31746;SDS011;18319;48.974;8.462;2023-04-06T10:06:18;5.32;;;4.90;;
31746;SDS011;18319;48.974;8.462;2023-04-06T10:08:50;5.57;;;4.68;;
31746;SDS011;18319;48.974;8.462;2023-04-06T10:11:23;4.63;;;4.22;;
31746;SDS011;18319;48.974;8.462;2023-04-06T10:13:52;6.47;;;4.68;;
31746;SDS011;18319;48.974;8.462;2023-04-06T10:16:21;4.72;;;4.32;;
31746;SDS011;18319;48.974;8.462;2023-04-06T10:18:50;4.72;;;4.35;;
31746;SDS011;18319;48.974;8.462;2023-04-06T10:21:23;4.40;;;4.10;;
31746;SDS011;18319;48.974;8.462;2023-04-06T10:23:52;6.15;;;5.18;;
31746;SDS011;18319;48.974;8.462;2023-04-06T10:26:20;5.60;;;5.07;;
31746;SDS011;18319;48.974;8.462;2023-04-06T10:28:48;5.63;;;5.13;;
31746;SDS011;18319;48.974;8.462;2023-04-06T10:31:23;5.88;;;5.38;;
31746;SDS011;18319;48.974;8.462;2023-04-06T10:33:54;5.40;;;5.00;;
31746;SDS011;18319;48.974;8.462;2023-04-06T10:36:23;5.47;;;4.97;;
31746;SDS011;18319;48.974;8.462;2023-04-06T10:38:56;7.07;;;4.95;;
31746;SDS011;18319;48.974;8.462;2023-04-06T10:41:24;5.18;;;4.30;;
31746;SDS011;18319;48.974;8.462;2023-04-06T10:43:59;5.38;;;4.88;;
31746;SDS011;18319;48.974;8.462;2023-04-06T10:46:26;4.85;;;4.35;;
31746;SDS011;18319;48.974;8.462;2023-04-06T10:48:55;5.22;;;4.72;;
31746;SDS011;18319;48.974;8.462;2023-04-06T10:51:25;5.32;;;4.82;;
31746;SDS011;18319;48.974;8.462;2023-04-06T10:53:54;6.00;;;5.43;;
31746;SDS011;18319;48.974;8.462;2023-04-06T10:56:22;5.43;;;4.45;;
31746;SDS011;18319;48.974;8.462;2023-04-06T10:58:52;4.68;;;4.35;;
31746;SDS011;18319;48.974;8.462;2023-04-06T11:01:21;5.05;;;4.53;;
31746;SDS011;18319;48.974;8.462;2023-04-06T11:03:49;5.10;;;4.70;;
31746;SDS011;18319;48.974;8.462;2023-04-06T11:06:17;5.57;;;5.13;;
31746;SDS011;18319;48.974;8.462;2023-04-06T11:08:47;7.25;;;6.55;;
31746;SDS011;18319;48.974;8.462;2023-04-06T11:11:15;10.50;;;5.43;;
31746;SDS011;18319;48.974;8.462;2023-04-06T11:13:44;5.70;;;5.15;;
31746;SDS011;18319;48.974;8.462;2023-04-06T11:16:13;6.47;;;5.53;;
31746;SDS011;18319;48.974;8.462;2023-04-06T11:18:50;6.10;;;4.80;;
31746;SDS011;18319;48.974;8.462;2023-04-06T11:21:18;6.53;;;5.60;;
31746;SDS011;18319;48.974;8.462;2023-04-06T11:23:47;5.25;;;4.75;;
31746;SDS011;18319;48.974;8.462;2023-04-06T11:26:14;5.55;;;5.05;;
31746;SDS011;18319;48.974;8.462;2023-04-06T11:28:41;6.07;;;5.47;;
31746;SDS011;18319;48.974;8.462;2023-04-06T11:31:09;5.38;;;4.85;;
31746;SDS011;18319;48.974;8.462;2023-04-06T11:33:36;5.32;;;4.82;;
31746;SDS011;18319;48.974;8.462;2023-04-06T11:36:04;5.93;;;4.43;;
31746;SDS011;18319;48.974;8.462;2023-04-06T11:38:32;4.93;;;4.53;;
31746;SDS011;18319;48.974;8.462;2023-04-06T11:41:00;7.78;;;5.53;;
31746;SDS011;18319;48.974;8.462;2023-04-06T11:43:27;6.65;;;5.10;;
31746;SDS011;18319;48.974;8.462;2023-04-06T11:45:59;6.20;;;4.93;;
31746;SDS011;18319;48.974;8.462;2023-04-06T11:48:27;5.32;;;4.80;;
31746;SDS011;18319;48.974;8.462;2023-04-06T11:50:57;5.90;;;5.30;;
31746;SDS011;18319;48.974;8.462;2023-04-06T11:53:26;5.75;;;4.70;;
31746;SDS011;18319;48.974;8.462;2023-04-06T11:55:55;6.88;;;4.55;;
31746;SDS011;18319;48.974;8.462;2023-04-06T11:58:23;5.53;;;5.10;;
31746;SDS011;18319;48.974;8.462;2023-04-06T12:00:50;5.93;;;5.15;;
31746;SDS011;18319;48.974;8.462;2023-04-06T12:03:17;7.72;;;5.93;;
31746;SDS011;18319;48.974;8.462;2023-04-06T12:05:44;6.78;;;5.95;;
31746;SDS011;18319;48.974;8.462;2023-04-06T12:08:11;6.30;;;5.28;;
31746;SDS011;18319;48.974;8.462;2023-04-06T12:10:38;9.70;;;5.57;;
31746;SDS011;18319;48.974;8.462;2023-04-06T12:13:05;5.40;;;4.85;;
31746;SDS011;18319;48.974;8.462;2023-04-06T12:15:33;5.40;;;4.40;;
31746;SDS011;18319;48.974;8.462;2023-04-06T12:18:00;4.70;;;4.30;;
31746;SDS011;18319;48.974;8.462;2023-04-06T12:20:27;6.22;;;4.72;;
31746;SDS011;18319;48.974;8.462;2023-04-06T12:22:54;6.18;;;5.43;;
31746;SDS011;18319;48.974;8.462;2023-04-06T12:25:21;4.97;;;4.57;;
31746;SDS011;18319;48.974;8.462;2023-04-06T12:27:48;6.43;;;4.53;;
31746;SDS011;18319;48.974;8.462;2023-04-06T12:30:15;5.68;;;4.78;;
31746;SDS011;18319;48.974;8.462;2023-04-06T12:32:44;6.35;;;5.10;;
31746;SDS011;18319;48.974;8.462;2023-04-06T12:35:10;5.60;;;5.10;;
31746;SDS011;18319;48.974;8.462;2023-04-06T12:37:40;5.80;;;5.30;;
31746;SDS011;18319;48.974;8.462;2023-04-06T12:40:08;5.78;;;4.90;;
31746;SDS011;18319;48.974;8.462;2023-04-06T12:42:38;6.43;;;5.82;;
31746;SDS011;18319;48.974;8.462;2023-04-06T12:45:06;5.32;;;4.85;;
31746;SDS011;18319;48.974;8.462;2023-04-06T12:47:33;6.13;;;5.55;;
31746;SDS011;18319;48.974;8.462;2023-04-06T12:50:02;5.18;;;4.68;;
31746;SDS011;18319;48.974;8.462;2023-04-06T12:52:30;6.90;;;5.03;;
31746;SDS011;18319;48.974;8.462;2023-04-06T12:55:00;5.63;;;5.22;;
31746;SDS011;18319;48.974;8.462;2023-04-06T12:57:27;5.80;;;5.10;;
31746;SDS011;18319;48.974;8.462;2023-04-06T12:59:54;6.18;;;5.60;;
31746;SDS011;18319;48.974;8.462;2023-04-06T13:02:21;7.68;;;5.55;;
31746;SDS011;18319;48.974;8.462;2023-04-06T13:04:48;4.97;;;4.40;;
31746;SDS011;18319;48.974;8.462;2023-04-06T13:07:17;5.50;;;5.00;;
31746;SDS011;18319;48.974;8.462;2023-04-06T13:09:44;5.57;;;5.18;;
31746;SDS011;18319;48.974;8.462;2023-04-06T13:12:12;5.90;;;5.40;;
31746;SDS011;18319;48.974;8.462;2023-04-06T13:14:39;5.03;;;4.63;;
31746;SDS011;18319;48.974;8.462;2023-04-06T13:17:06;5.85;;;4.90;;
31746;SDS011;18319;48.974;8.462;2023-04-06T13:19:33;6.35;;;4.90;;
31746;SDS011;18319;48.974;8.462;2023-04-06T13:22:00;5.05;;;4.47;;
31746;SDS011;18319;48.974;8.462;2023-04-06T13:24:29;5.60;;;4.13;;
31746;SDS011;18319;48.974;8.462;2023-04-06T13:26:56;4.97;;;4.65;;
31746;SDS011;18319;48.974;8.462;2023-04-06T13:29:22;5.28;;;4.28;;
31746;SDS011;18319;48.974;8.462;2023-04-06T13:31:51;4.20;;;3.90;;
31746;SDS011;18319;48.974;8.462;2023-04-06T13:34:17;4.95;;;3.88;;
31746;SDS011;18319;48.974;8.462;2023-04-06T13:36:44;4.10;;;3.80;;
31746;SDS011;18319;48.974;8.462;2023-04-06T13:39:11;4.85;;;4.28;;
31746;SDS011;18319;48.974;8.462;2023-04-06T13:41:39;5.80;;;4.47;;
31746;SDS011;18319;48.974;8.462;2023-04-06T13:44:06;4.13;;;3.75;;
31746;SDS011;18319;48.974;8.462;2023-04-06T13:46:33;4.80;;;3.55;;
31746;SDS011;18319;48.974;8.462;2023-04-06T13:49:01;3.90;;;3.60;;
31746;SDS011;18319;48.974;8.462;2023-04-06T13:51:27;3.30;;;3.05;;
31746;SDS011;18319;48.974;8.462;2023-04-06T13:53:55;3.72;;;3.45;;
31746;SDS011;18319;48.974;8.462;2023-04-06T13:56:22;3.80;;;3.33;;
31746;SDS011;18319;48.974;8.462;2023-04-06T13:58:51;3.67;;;3.38;;
31746;SDS011;18319;48.974;8.462;2023-04-06T14:01:19;3.35;;;3.15;;
31746;SDS011;18319;48.974;8.462;2023-04-06T14:03:47;4.55;;;3.85;;
31746;SDS011;18319;48.974;8.462;2023-04-06T14:06:14;3.75;;;3.45;;
31746;SDS011;18319;48.974;8.462;2023-04-06T14:08:41;4.03;;;3.72;;
31746;SDS011;18319;48.974;8.462;2023-04-06T14:11:10;4.53;;;3.75;;
31746;SDS011;18319;48.974;8.462;2023-04-06T14:13:38;3.95;;;3.42;;
31746;SDS011;18319;48.974;8.462;2023-04-06T14:16:06;4.97;;;3.88;;
31746;SDS011;18319;48.974;8.462;2023-04-06T14:18:33;3.40;;;3.15;;
31746;SDS011;18319;48.974;8.462;2023-04-06T14:21:00;4.07;;;3.78;;
31746;SDS011;18319;48.974;8.462;2023-04-06T14:23:27;3.35;;;3.08;;
31746;SDS011;18319;48.974;8.462;2023-04-06T14:26:00;3.70;;;3.40;;
31746;SDS011;18319;48.974;8.462;2023-04-06T14:28:28;3.92;;;3.53;;
31746;SDS011;18319;48.974;8.462;2023-04-06T14:30:55;4.53;;;3.20;;
31746;SDS011;18319;48.974;8.462;2023-04-06T14:33:24;5.70;;;2.60;;
31746;SDS011;18319;48.974;8.462;2023-04-06T14:35:51;4.75;;;2.88;;
31746;SDS011;18319;48.974;8.462;2023-04-06T14:38:18;3.85;;;2.70;;
31746;SDS011;18319;48.974;8.462;2023-04-06T14:40:44;4.57;;;3.33;;
31746;SDS011;18319;48.974;8.462;2023-04-06T14:43:11;3.50;;;3.25;;
31746;SDS011;18319;48.974;8.462;2023-04-06T14:45:38;3.88;;;3.33;;
31746;SDS011;18319;48.974;8.462;2023-04-06T14:48:05;5.00;;;3.38;;
31746;SDS011;18319;48.974;8.462;2023-04-06T14:50:34;3.85;;;3.33;;